Time,TemperatureF,DewpointF,PressureIn,WindDirection,WindDirectionDegrees,WindSpeedMPH,WindSpeedGustMPH,Humidity,HourlyPrecipIn,Conditions,Clouds,dailyrainin,SolarRadiationWatts/m^2,SoftwareType,DateUTC
2013-12-02 00:01:00,50.9,49.8,29.99,NE,41,0.0,0.0,96,0.00,,,0.00,0.0,meteohub,2013-12-02 05:01:00,
2013-12-02 00:02:00,50.9,49.8,29.99,NE,41,0.0,0.0,96,0.00,,,0.00,0.0,meteohub,2013-12-02 05:02:00,
2013-12-02 00:07:00,50.7,49.6,29.99,NE,41,0.0,0.0,96,0.00,,,0.00,0.0,meteohub,2013-12-02 05:07:00,
2013-12-02 00:12:00,50.7,49.6,29.99,NE,41,0.0,0.0,96,0.00,,,0.00,0.0,meteohub,2013-12-02 05:12:00,
2013-12-02 00:17:00,50.7,49.6,29.99,NE,41,0.0,0.0,96,0.00,,,0.00,0.0,meteohub,2013-12-02 05:17:00,
2013-12-02 00:22:00,50.7,49.6,29.98,NE,41,0.0,0.0,96,0.00,,,0.00,0.0,meteohub,2013-12-02 05:22:00,
2013-12-02 00:27:00,50.7,49.6,29.98,NE,41,0.0,0.0,96,0.00,,,0.00,0.0,meteohub,2013-12-02 05:27:00,
2013-12-02 00:32:00,50.7,49.6,29.98,NE,41,0.0,0.0,96,0.00,,,0.00,0.0,meteohub,2013-12-02 05:32:00,
2013-12-02 00:37:00,50.7,49.6,29.97,NE,41,0.0,0.0,96,0.00,,,0.00,0.0,meteohub,2013-12-02 05:37:00,
2013-12-02 00:42:00,50.7,49.6,29.97,NE,41,0.0,0.0,96,0.00,,,0.00,0.0,meteohub,2013-12-02 05:42:00,
2013-12-02 00:47:00,50.7,49.6,29.98,NE,41,0.0,0.0,96,0.00,,,0.00,0.0,meteohub,2013-12-02 05:47:00,
2013-12-02 00:52:00,50.5,49.5,29.97,NE,41,0.0,0.0,96,0.00,,,0.00,0.0,meteohub,2013-12-02 05:52:00,
2013-12-02 00:57:00,50.9,49.8,29.97,NE,41,0.0,0.0,96,0.00,,,0.00,0.0,meteohub,2013-12-02 05:57:00,
2013-12-02 01:02:00,51.1,50.0,29.97,NE,41,0.0,0.0,96,0.00,,,0.00,0.0,meteohub,2013-12-02 06:02:00,
2013-12-02 01:07:00,51.3,50.2,29.97,NE,41,0.0,1.0,96,0.00,,,0.00,0.0,meteohub,2013-12-02 06:07:00,
2013-12-02 01:12:00,51.3,50.4,29.97,NE,41,0.0,1.0,97,0.00,,,0.00,0.0,meteohub,2013-12-02 06:12:00,
2013-12-02 01:17:00,51.3,50.4,29.97,NE,41,0.0,1.0,97,0.00,,,0.00,0.0,meteohub,2013-12-02 06:17:00,
2013-12-02 01:22:00,51.3,50.4,29.97,NE,41,0.0,2.0,97,0.00,,,0.00,0.0,meteohub,2013-12-02 06:22:00,
2013-12-02 01:27:00,51.3,50.4,29.96,NE,41,0.0,2.0,97,0.00,,,0.00,0.0,meteohub,2013-12-02 06:27:00,
2013-12-02 01:32:00,51.3,50.4,29.96,NE,41,0.0,2.0,97,0.00,,,0.00,0.0,meteohub,2013-12-02 06:32:00,
2013-12-02 01:37:00,51.3,50.2,29.96,NE,41,0.0,2.0,96,0.00,,,0.00,0.0,meteohub,2013-12-02 06:37:00,
2013-12-02 01:42:00,51.1,50.0,29.96,NE,41,0.0,1.0,96,0.00,,,0.00,0.0,meteohub,2013-12-02 06:42:00,
2013-12-02 01:47:00,51.3,50.2,29.97,NE,41,0.0,1.0,96,0.00,,,0.00,0.0,meteohub,2013-12-02 06:47:00,
2013-12-02 01:52:00,51.3,50.2,29.96,NE,41,0.0,1.0,96,0.00,,,0.00,0.0,meteohub,2013-12-02 06:52:00,
2013-12-02 01:57:00,51.1,50.0,29.96,NE,41,0.0,2.0,96,0.00,,,0.00,0.0,meteohub,2013-12-02 06:57:00,
2013-12-02 02:02:00,51.3,50.4,29.96,NE,41,0.0,2.0,97,0.00,,,0.00,0.0,meteohub,2013-12-02 07:02:00,
2013-12-02 02:07:00,51.3,50.2,29.96,NE,41,0.0,2.0,96,0.00,,,0.00,0.0,meteohub,2013-12-02 07:07:00,
2013-12-02 02:12:00,51.3,50.2,29.95,NE,41,0.0,0.0,96,0.00,,,0.00,0.0,meteohub,2013-12-02 07:12:00,
2013-12-02 02:17:00,51.3,50.2,29.94,NE,41,0.0,0.0,96,0.00,,,0.00,0.0,meteohub,2013-12-02 07:17:00,
2013-12-02 02:22:00,51.1,50.0,29.94,NE,41,0.0,0.0,96,0.00,,,0.00,0.0,meteohub,2013-12-02 07:22:00,
2013-12-02 02:27:00,51.1,50.0,29.95,NE,41,0.0,0.0,96,0.00,,,0.00,0.0,meteohub,2013-12-02 07:27:00,
2013-12-02 02:32:00,51.1,50.0,29.94,NE,41,0.0,0.0,96,0.00,,,0.00,0.0,meteohub,2013-12-02 07:32:00,
2013-12-02 02:37:00,51.1,50.0,29.94,NE,41,0.0,0.0,96,0.00,,,0.00,0.0,meteohub,2013-12-02 07:37:00,
2013-12-02 02:42:00,51.1,50.0,29.94,NE,41,0.0,0.0,96,0.00,,,0.00,0.0,meteohub,2013-12-02 07:42:00,
2013-12-02 02:47:00,51.1,50.0,29.95,NE,41,0.0,0.0,96,0.00,,,0.00,0.0,meteohub,2013-12-02 07:47:00,
2013-12-02 02:52:00,51.1,50.0,29.95,NE,41,0.0,0.0,96,0.00,,,0.00,0.0,meteohub,2013-12-02 07:52:00,
2013-12-02 02:57:00,51.1,50.0,29.95,NE,41,0.0,0.0,96,0.00,,,0.00,0.0,meteohub,2013-12-02 07:57:00,
2013-12-02 03:02:00,51.1,50.0,29.95,NE,41,0.0,0.0,96,0.00,,,0.00,0.0,meteohub,2013-12-02 08:02:00,
2013-12-02 03:07:00,51.1,50.0,29.95,NE,41,0.0,0.0,96,0.00,,,0.00,0.0,meteohub,2013-12-02 08:07:00,
2013-12-02 03:12:00,51.1,50.0,29.96,NE,41,0.0,0.0,96,0.00,,,0.00,0.0,meteohub,2013-12-02 08:12:00,
2013-12-02 03:17:00,51.1,50.0,29.96,NE,41,0.0,1.0,96,0.00,,,0.00,0.0,meteohub,2013-12-02 08:17:00,
2013-12-02 03:22:00,51.1,50.0,29.96,NE,41,1.0,2.0,96,0.00,,,0.00,0.0,meteohub,2013-12-02 08:22:00,
2013-12-02 03:27:00,51.1,50.0,29.96,NE,41,0.0,2.0,96,0.00,,,0.00,0.0,meteohub,2013-12-02 08:27:00,
2013-12-02 03:32:00,51.1,50.0,29.96,NE,41,0.0,2.0,96,0.00,,,0.00,0.0,meteohub,2013-12-02 08:32:00,
2013-12-02 03:37:00,51.1,50.0,29.95,NE,41,0.0,2.0,96,0.00,,,0.00,0.0,meteohub,2013-12-02 08:37:00,
2013-12-02 03:42:00,51.1,50.0,29.94,NE,41,0.0,2.0,96,0.00,,,0.00,0.0,meteohub,2013-12-02 08:42:00,
2013-12-02 03:47:00,51.1,50.0,29.94,NE,41,0.0,2.0,96,0.00,,,0.00,0.0,meteohub,2013-12-02 08:47:00,
2013-12-02 03:53:00,51.1,50.0,29.94,NE,41,1.0,1.0,96,0.00,,,0.00,0.0,meteohub,2013-12-02 08:53:00,
2013-12-02 03:58:00,51.1,50.0,29.94,NE,41,0.0,2.0,96,0.00,,,0.00,0.0,meteohub,2013-12-02 08:58:00,
2013-12-02 04:03:00,51.1,50.0,29.93,NE,41,0.0,2.0,96,0.00,,,0.00,0.0,meteohub,2013-12-02 09:03:00,
2013-12-02 04:08:00,51.1,50.0,29.94,West,279,0.0,3.0,96,0.00,,,0.00,0.0,meteohub,2013-12-02 09:08:00,
2013-12-02 04:13:00,50.9,49.8,29.94,West,279,0.0,3.0,96,0.00,,,0.00,0.0,meteohub,2013-12-02 09:13:00,
2013-12-02 04:18:00,50.9,49.8,29.93,West,279,0.0,3.0,96,0.00,,,0.00,0.0,meteohub,2013-12-02 09:18:00,
2013-12-02 04:23:00,50.9,49.8,29.93,West,279,0.0,2.0,96,0.00,,,0.00,0.0,meteohub,2013-12-02 09:23:00,
2013-12-02 04:28:00,50.9,49.8,29.93,West,279,0.0,1.0,96,0.00,,,0.00,0.0,meteohub,2013-12-02 09:28:00,
2013-12-02 04:33:00,51.1,50.0,29.94,West,279,0.0,1.0,96,0.00,,,0.00,0.0,meteohub,2013-12-02 09:33:00,
2013-12-02 04:38:00,51.1,50.0,29.93,West,279,0.0,1.0,96,0.00,,,0.00,0.0,meteohub,2013-12-02 09:38:00,
2013-12-02 04:43:00,51.1,50.0,29.93,West,279,1.0,1.0,96,0.00,,,0.00,0.0,meteohub,2013-12-02 09:43:00,
2013-12-02 04:48:00,51.1,50.0,29.93,West,279,0.0,2.0,96,0.00,,,0.00,0.0,meteohub,2013-12-02 09:48:00,
2013-12-02 04:53:00,51.3,50.2,29.93,West,279,0.0,2.0,96,0.00,,,0.00,0.0,meteohub,2013-12-02 09:53:00,
2013-12-02 04:58:00,51.3,50.2,29.93,West,279,0.0,2.0,96,0.00,,,0.00,0.0,meteohub,2013-12-02 09:58:00,
2013-12-02 05:03:00,51.3,50.2,29.93,West,279,0.0,1.0,96,0.00,,,0.00,0.0,meteohub,2013-12-02 10:03:00,
2013-12-02 05:08:00,51.4,50.4,29.93,West,279,0.0,2.0,96,0.00,,,0.00,0.0,meteohub,2013-12-02 10:08:00,
2013-12-02 05:13:00,51.4,50.4,29.93,West,279,0.0,2.0,96,0.00,,,0.00,0.0,meteohub,2013-12-02 10:13:00,
2013-12-02 05:18:00,51.4,50.4,29.94,West,279,0.0,2.0,96,0.00,,,0.00,0.0,meteohub,2013-12-02 10:18:00,
2013-12-02 05:23:00,51.3,50.2,29.94,West,279,0.0,1.0,96,0.00,,,0.00,0.0,meteohub,2013-12-02 10:23:00,
2013-12-02 05:28:00,51.3,50.2,29.93,West,279,0.0,0.0,96,0.00,,,0.00,0.0,meteohub,2013-12-02 10:28:00,
2013-12-02 05:33:00,51.4,50.4,29.94,West,279,0.0,0.0,96,0.00,,,0.00,0.0,meteohub,2013-12-02 10:33:00,
2013-12-02 05:38:00,51.4,50.4,29.93,West,279,0.0,1.0,96,0.00,,,0.00,0.0,meteohub,2013-12-02 10:38:00,
2013-12-02 05:43:00,51.4,50.4,29.93,West,279,0.0,1.0,96,0.00,,,0.00,0.0,meteohub,2013-12-02 10:43:00,
2013-12-02 05:48:00,51.4,50.4,29.93,West,279,0.0,0.0,96,0.00,,,0.00,0.0,meteohub,2013-12-02 10:48:00,
2013-12-02 05:53:00,51.4,50.4,29.93,West,279,0.0,0.0,96,0.00,,,0.00,0.0,meteohub,2013-12-02 10:53:00,
2013-12-02 05:58:00,51.4,50.4,29.93,West,279,0.0,0.0,96,0.00,,,0.00,0.0,meteohub,2013-12-02 10:58:00,
2013-12-02 06:03:00,51.4,50.4,29.93,West,279,0.0,0.0,96,0.00,,,0.00,0.0,meteohub,2013-12-02 11:03:00,
2013-12-02 06:08:00,51.4,50.4,29.93,West,279,0.0,0.0,96,0.00,,,0.00,0.0,meteohub,2013-12-02 11:08:00,
2013-12-02 06:13:00,51.4,50.4,29.93,West,279,0.0,0.0,96,0.00,,,0.00,0.0,meteohub,2013-12-02 11:13:00,
2013-12-02 06:18:00,51.3,50.2,29.93,West,279,0.0,0.0,96,0.00,,,0.00,0.0,meteohub,2013-12-02 11:18:00,
2013-12-02 06:23:00,51.3,50.2,29.93,West,279,0.0,1.0,96,0.00,,,0.00,0.0,meteohub,2013-12-02 11:23:00,
2013-12-02 06:28:00,51.3,50.2,29.94,West,279,0.0,1.0,96,0.00,,,0.00,0.0,meteohub,2013-12-02 11:28:00,
2013-12-02 06:33:00,51.3,50.2,29.94,West,279,0.0,1.0,96,0.00,,,0.00,0.0,meteohub,2013-12-02 11:33:00,
2013-12-02 06:38:00,51.3,50.2,29.93,West,279,0.0,0.0,96,0.00,,,0.00,0.0,meteohub,2013-12-02 11:38:00,
2013-12-02 06:43:00,51.1,50.0,29.93,West,279,0.0,0.0,96,0.00,,,0.00,0.0,meteohub,2013-12-02 11:43:00,
2013-12-02 06:48:00,51.1,50.0,29.93,West,279,0.0,0.0,96,0.00,,,0.00,0.0,meteohub,2013-12-02 11:48:00,
2013-12-02 06:53:00,51.1,50.0,29.93,West,279,0.0,0.0,96,0.00,,,0.00,0.0,meteohub,2013-12-02 11:53:00,
2013-12-02 06:58:00,51.1,50.0,29.93,West,279,0.0,0.0,96,0.00,,,0.00,0.0,meteohub,2013-12-02 11:58:00,
2013-12-02 07:03:00,51.1,50.0,29.93,West,279,0.0,0.0,96,0.00,,,0.00,0.0,meteohub,2013-12-02 12:03:00,
2013-12-02 07:08:00,50.9,49.8,29.93,West,279,0.0,0.0,96,0.00,,,0.00,0.0,meteohub,2013-12-02 12:08:00,
2013-12-02 07:13:00,50.9,49.8,29.93,West,279,0.0,0.0,96,0.00,,,0.00,0.0,meteohub,2013-12-02 12:13:00,
2013-12-02 07:18:00,50.9,49.8,29.94,West,279,0.0,0.0,96,0.00,,,0.00,0.0,meteohub,2013-12-02 12:18:00,
2013-12-02 07:23:00,51.1,50.0,29.94,West,279,0.0,0.0,96,0.00,,,0.00,0.0,meteohub,2013-12-02 12:23:00,
2013-12-02 07:28:00,51.1,50.0,29.94,West,279,0.0,2.0,96,0.00,,,0.00,5.0,meteohub,2013-12-02 12:28:00,
2013-12-02 07:33:00,51.1,50.0,29.94,West,279,0.0,2.0,96,0.00,,,0.00,5.0,meteohub,2013-12-02 12:33:00,
2013-12-02 07:38:00,51.1,50.0,29.94,West,279,0.0,2.0,96,0.00,,,0.00,7.0,meteohub,2013-12-02 12:38:00,
2013-12-02 07:43:00,51.1,50.0,29.93,West,279,0.0,2.0,96,0.00,,,0.00,11.0,meteohub,2013-12-02 12:43:00,
2013-12-02 07:48:00,51.1,50.0,29.94,West,279,0.0,1.0,96,0.00,,,0.00,9.0,meteohub,2013-12-02 12:48:00,
2013-12-02 07:53:00,51.1,50.0,29.93,West,279,0.0,1.0,96,0.00,,,0.00,9.0,meteohub,2013-12-02 12:53:00,
2013-12-02 07:58:00,51.1,50.0,29.93,West,279,0.0,1.0,96,0.00,,,0.00,12.0,meteohub,2013-12-02 12:58:00,
2013-12-02 08:03:00,51.1,50.0,29.93,West,279,0.0,0.0,96,0.00,,,0.00,14.0,meteohub,2013-12-02 13:03:00,
2013-12-02 08:08:00,51.1,50.0,29.92,West,279,0.0,0.0,96,0.00,,,0.00,14.0,meteohub,2013-12-02 13:08:00,
2013-12-02 08:13:00,51.1,50.0,29.92,SW,232,0.0,0.0,96,0.00,,,0.00,19.0,meteohub,2013-12-02 13:13:00,
2013-12-02 08:18:00,51.1,50.0,29.92,SW,232,0.0,1.0,96,0.00,,,0.00,30.0,meteohub,2013-12-02 13:18:00,
2013-12-02 08:23:00,51.1,50.0,29.92,SW,232,0.0,1.0,96,0.00,,,0.00,39.0,meteohub,2013-12-02 13:23:00,
2013-12-02 08:29:00,51.3,50.2,29.93,SW,232,0.0,1.0,96,0.00,,,0.00,39.0,meteohub,2013-12-02 13:29:00,
2013-12-02 08:34:00,51.3,50.2,29.92,SW,232,0.0,2.0,96,0.00,,,0.00,44.0,meteohub,2013-12-02 13:34:00,
2013-12-02 08:39:00,51.4,50.4,29.92,SW,232,0.0,2.0,96,0.00,,,0.00,53.0,meteohub,2013-12-02 13:39:00,
2013-12-02 08:44:00,51.6,50.5,29.92,SW,232,0.0,1.0,96,0.00,,,0.00,74.0,meteohub,2013-12-02 13:44:00,
2013-12-02 08:49:00,52.0,51.1,29.91,SW,232,0.0,2.0,97,0.00,,,0.00,84.0,meteohub,2013-12-02 13:49:00,
2013-12-02 08:54:00,52.0,51.1,29.91,SW,232,0.0,2.0,97,0.00,,,0.00,90.0,meteohub,2013-12-02 13:54:00,
2013-12-02 08:59:00,52.3,51.3,29.93,SW,232,0.0,2.0,96,0.00,,,0.00,105.0,meteohub,2013-12-02 13:59:00,
2013-12-02 09:04:00,52.5,51.6,29.93,NNW,329,0.0,2.0,97,0.00,,,0.00,141.0,meteohub,2013-12-02 14:04:00,
2013-12-02 09:09:00,52.9,51.8,29.93,NW,316,0.0,3.0,96,0.00,,,0.00,148.0,meteohub,2013-12-02 14:09:00,
2013-12-02 09:14:00,53.1,52.2,29.92,NW,315,0.0,3.0,97,0.00,,,0.00,128.0,meteohub,2013-12-02 14:14:00,
2013-12-02 09:19:00,53.2,52.2,29.92,NW,316,0.0,3.0,96,0.00,,,0.00,116.0,meteohub,2013-12-02 14:19:00,
2013-12-02 09:24:00,53.2,52.2,29.92,NW,315,0.0,3.0,96,0.00,,,0.00,100.0,meteohub,2013-12-02 14:24:00,
2013-12-02 09:29:00,53.4,52.3,29.92,NW,316,0.0,2.0,96,0.00,,,0.00,246.0,meteohub,2013-12-02 14:29:00,
2013-12-02 09:34:00,53.8,52.3,29.92,NW,316,0.0,0.0,95,0.00,,,0.00,149.0,meteohub,2013-12-02 14:34:00,
2013-12-02 09:39:00,54.0,52.5,29.92,NW,316,0.0,2.0,95,0.00,,,0.00,144.0,meteohub,2013-12-02 14:39:00,
2013-12-02 09:44:00,54.1,52.5,29.92,NW,315,0.0,2.0,94,0.00,,,0.00,165.0,meteohub,2013-12-02 14:44:00,
2013-12-02 09:49:00,54.3,52.3,29.92,NW,315,1.0,2.0,93,0.00,,,0.00,269.0,meteohub,2013-12-02 14:49:00,
2013-12-02 09:54:00,54.9,52.5,29.91,NW,319,0.0,2.0,92,0.00,,,0.00,406.0,meteohub,2013-12-02 14:54:00,
2013-12-02 09:59:00,55.6,53.1,29.92,NW,319,0.0,1.0,91,0.00,,,0.00,403.0,meteohub,2013-12-02 14:59:00,
2013-12-02 10:04:00,56.1,52.7,29.92,West,279,0.0,3.0,88,0.00,,,0.00,427.0,meteohub,2013-12-02 15:04:00,
2013-12-02 10:09:00,56.8,53.1,29.91,West,279,0.0,4.0,87,0.00,,,0.00,548.0,meteohub,2013-12-02 15:09:00,
2013-12-02 10:14:00,58.3,54.1,29.91,West,279,0.0,4.0,86,0.00,,,0.00,485.0,meteohub,2013-12-02 15:14:00,
2013-12-02 10:19:00,59.0,53.6,29.91,West,279,2.0,4.0,82,0.00,,,0.00,591.0,meteohub,2013-12-02 15:19:00,
2013-12-02 10:24:00,59.0,52.9,29.91,NW,314,0.0,1.0,80,0.00,,,0.00,575.0,meteohub,2013-12-02 15:24:00,
2013-12-02 10:29:00,59.0,52.2,29.91,NW,315,1.0,6.0,78,0.00,,,0.00,575.0,meteohub,2013-12-02 15:29:00,
2013-12-02 10:34:00,59.2,52.3,29.91,NW,325,0.0,6.0,78,0.00,,,0.00,202.0,meteohub,2013-12-02 15:34:00,
2013-12-02 10:39:00,59.2,52.0,29.91,NE,48,0.0,6.0,77,0.00,,,0.00,582.0,meteohub,2013-12-02 15:39:00,
2013-12-02 10:44:00,59.5,52.3,29.90,NE,37,3.0,6.0,77,0.00,,,0.00,541.0,meteohub,2013-12-02 15:44:00,
2013-12-02 10:49:00,59.9,52.0,29.90,NNW,338,3.0,6.0,75,0.00,,,0.00,555.0,meteohub,2013-12-02 15:49:00,
2013-12-02 10:54:00,60.1,52.2,29.91,North,5,4.0,7.0,75,0.00,,,0.00,561.0,meteohub,2013-12-02 15:54:00,
2013-12-02 10:59:00,60.3,52.0,29.90,WNW,294,0.0,7.0,74,0.00,,,0.00,563.0,meteohub,2013-12-02 15:59:00,
2013-12-02 11:04:00,60.4,52.2,29.90,NE,38,4.0,7.0,74,0.00,,,0.00,573.0,meteohub,2013-12-02 16:04:00,
2013-12-02 11:09:00,60.4,52.2,29.89,NW,306,0.0,7.0,74,0.00,,,0.00,577.0,meteohub,2013-12-02 16:09:00,
2013-12-02 11:14:00,61.0,53.4,29.89,NNE,24,4.0,6.0,76,0.00,,,0.00,584.0,meteohub,2013-12-02 16:14:00,
2013-12-02 11:20:00,61.2,52.5,29.89,WNW,291,2.0,6.0,73,0.00,,,0.00,599.0,meteohub,2013-12-02 16:20:00,
2013-12-02 11:25:00,61.2,52.5,29.89,NW,309,4.0,6.0,73,0.00,,,0.00,605.0,meteohub,2013-12-02 16:25:00,
2013-12-02 11:30:00,61.2,52.9,29.88,NE,37,0.0,7.0,74,0.00,,,0.00,601.0,meteohub,2013-12-02 16:30:00,
2013-12-02 11:35:00,61.3,52.7,29.88,NW,312,0.0,7.0,73,0.00,,,0.00,594.0,meteohub,2013-12-02 16:35:00,
2013-12-02 11:40:00,61.9,53.1,29.88,NW,312,0.0,5.0,73,0.00,,,0.00,571.0,meteohub,2013-12-02 16:40:00,
2013-12-02 11:45:00,62.2,53.1,29.87,WNW,290,0.0,5.0,72,0.00,,,0.00,559.0,meteohub,2013-12-02 16:45:00,
2013-12-02 11:50:00,62.4,53.6,29.87,West,271,3.0,4.0,73,0.00,,,0.00,564.0,meteohub,2013-12-02 16:50:00,
2013-12-02 11:55:00,62.8,53.6,29.87,WNW,298,3.0,6.0,72,0.00,,,0.00,587.0,meteohub,2013-12-02 16:55:00,
2013-12-02 12:00:00,62.8,53.2,29.87,WNW,288,0.0,6.0,71,0.00,,,0.00,605.0,meteohub,2013-12-02 17:00:00,
2013-12-02 12:05:00,63.0,53.8,29.86,NW,317,0.0,6.0,72,0.00,,,0.00,629.0,meteohub,2013-12-02 17:05:00,
2013-12-02 12:10:00,63.3,53.8,29.86,NW,326,0.0,6.0,71,0.00,,,0.00,615.0,meteohub,2013-12-02 17:10:00,
2013-12-02 12:15:00,63.7,53.8,29.86,NE,44,1.0,6.0,70,0.00,,,0.00,608.0,meteohub,2013-12-02 17:15:00,
2013-12-02 12:20:00,63.7,53.8,29.85,West,277,5.0,7.0,70,0.00,,,0.00,594.0,meteohub,2013-12-02 17:20:00,
2013-12-02 12:25:00,63.7,53.2,29.85,WNW,290,2.0,7.0,69,0.00,,,0.00,578.0,meteohub,2013-12-02 17:25:00,
2013-12-02 12:30:00,63.7,53.2,29.85,NE,44,5.0,6.0,69,0.00,,,0.00,575.0,meteohub,2013-12-02 17:30:00,
2013-12-02 12:35:00,63.9,54.0,29.85,West,273,1.0,6.0,70,0.00,,,0.00,570.0,meteohub,2013-12-02 17:35:00,
2013-12-02 12:40:00,64.4,53.6,29.85,WNW,296,4.0,6.0,68,0.00,,,0.00,568.0,meteohub,2013-12-02 17:40:00,
2013-12-02 12:45:00,64.2,53.4,29.85,SW,219,1.0,9.0,68,0.00,,,0.00,566.0,meteohub,2013-12-02 17:45:00,
2013-12-02 12:50:00,64.2,53.1,29.85,West,276,2.0,9.0,67,0.00,,,0.00,582.0,meteohub,2013-12-02 17:50:00,
2013-12-02 12:55:00,64.2,53.8,29.85,NNE,22,2.0,8.0,69,0.00,,,0.00,580.0,meteohub,2013-12-02 17:55:00,
2013-12-02 13:00:00,64.6,53.4,29.85,West,276,3.0,8.0,67,0.00,,,0.00,554.0,meteohub,2013-12-02 18:00:00,
2013-12-02 13:05:00,64.9,54.1,29.85,NW,313,2.0,8.0,68,0.00,,,0.00,584.0,meteohub,2013-12-02 18:05:00,
2013-12-02 13:10:00,64.8,53.1,29.85,NW,304,4.0,9.0,66,0.00,,,0.00,181.0,meteohub,2013-12-02 18:10:00,
2013-12-02 13:15:00,64.4,53.2,29.85,WNW,287,2.0,12.0,67,0.00,,,0.00,410.0,meteohub,2013-12-02 18:15:00,
2013-12-02 13:20:00,64.2,52.7,29.84,WNW,282,3.0,12.0,66,0.00,,,0.00,104.0,meteohub,2013-12-02 18:20:00,
2013-12-02 13:25:00,64.0,52.9,29.84,NW,316,4.0,10.0,67,0.00,,,0.00,418.0,meteohub,2013-12-02 18:25:00,
2013-12-02 13:30:00,64.2,53.1,29.83,NW,310,0.0,10.0,67,0.00,,,0.00,541.0,meteohub,2013-12-02 18:30:00,
2013-12-02 13:35:00,64.9,52.9,29.83,NW,306,0.0,10.0,65,0.00,,,0.00,113.0,meteohub,2013-12-02 18:35:00,
2013-12-02 13:40:00,64.9,53.2,29.83,NW,305,6.0,7.0,66,0.00,,,0.00,570.0,meteohub,2013-12-02 18:40:00,
2013-12-02 13:45:00,64.9,52.5,29.83,SW,219,0.0,7.0,64,0.00,,,0.00,538.0,meteohub,2013-12-02 18:45:00,
2013-12-02 13:50:00,65.3,53.2,29.83,NW,311,0.0,7.0,65,0.00,,,0.00,519.0,meteohub,2013-12-02 18:50:00,
2013-12-02 13:56:00,65.5,53.4,29.82,NW,304,9.0,9.0,65,0.00,,,0.00,468.0,meteohub,2013-12-02 18:56:00,
2013-12-02 14:01:00,65.3,53.6,29.82,WNW,299,3.0,14.0,66,0.00,,,0.00,455.0,meteohub,2013-12-02 19:01:00,
2013-12-02 14:06:00,65.5,53.8,29.82,WNW,290,0.0,14.0,66,0.00,,,0.00,468.0,meteohub,2013-12-02 19:06:00,
2013-12-02 14:11:00,65.5,53.4,29.82,WNW,283,1.0,14.0,65,0.00,,,0.00,448.0,meteohub,2013-12-02 19:11:00,
2013-12-02 14:16:00,65.5,53.8,29.82,West,263,0.0,9.0,66,0.00,,,0.00,418.0,meteohub,2013-12-02 19:16:00,
2013-12-02 14:21:00,65.8,53.8,29.82,NW,309,2.0,9.0,65,0.00,,,0.00,406.0,meteohub,2013-12-02 19:21:00,
2013-12-02 14:26:00,65.8,53.8,29.82,WNW,288,0.0,8.0,65,0.00,,,0.00,404.0,meteohub,2013-12-02 19:26:00,
2013-12-02 14:31:00,65.8,52.9,29.82,WNW,290,8.0,8.0,63,0.00,,,0.00,413.0,meteohub,2013-12-02 19:31:00,
2013-12-02 14:35:00,65.3,52.9,29.82,West,273,9.0,10.0,64,0.00,,,0.00,392.0,meteohub,2013-12-02 19:35:00,
2013-12-02 14:40:00,65.1,53.1,29.81,NW,308,2.0,10.0,65,0.00,,,0.00,373.0,meteohub,2013-12-02 19:40:00,
2013-12-02 14:45:00,65.5,53.4,29.81,WNW,292,0.0,12.0,65,0.00,,,0.00,265.0,meteohub,2013-12-02 19:45:00,
2013-12-02 14:51:00,65.5,53.1,29.81,WNW,287,3.0,12.0,64,0.00,,,0.00,257.0,meteohub,2013-12-02 19:51:00,
2013-12-02 14:56:00,65.3,52.9,29.81,WNW,290,4.0,7.0,64,0.00,,,0.00,262.0,meteohub,2013-12-02 19:56:00,
2013-12-02 15:01:00,65.5,53.4,29.81,WNW,294,0.0,7.0,65,0.00,,,0.00,104.0,meteohub,2013-12-02 20:01:00,
2013-12-02 15:06:00,65.5,53.1,29.81,WNW,295,0.0,7.0,64,0.00,,,0.00,236.0,meteohub,2013-12-02 20:06:00,
2013-12-02 15:11:00,65.5,53.4,29.81,WNW,296,0.0,4.0,65,0.00,,,0.00,151.0,meteohub,2013-12-02 20:11:00,
2013-12-02 15:16:00,65.5,53.4,29.81,NNW,336,2.0,4.0,65,0.00,,,0.00,84.0,meteohub,2013-12-02 20:16:00,
2013-12-02 15:21:00,65.5,53.1,29.81,WSW,250,0.0,5.0,64,0.00,,,0.00,109.0,meteohub,2013-12-02 20:21:00,
2013-12-02 15:26:00,65.5,53.1,29.82,WSW,249,0.0,5.0,64,0.00,,,0.00,125.0,meteohub,2013-12-02 20:26:00,
2013-12-02 15:31:00,65.5,53.4,29.81,SE,140,0.0,5.0,65,0.00,,,0.00,144.0,meteohub,2013-12-02 20:31:00,
2013-12-02 15:36:00,65.5,53.8,29.82,WNW,294,0.0,4.0,66,0.00,,,0.00,130.0,meteohub,2013-12-02 20:36:00,
2013-12-02 15:41:00,65.7,53.6,29.82,West,279,0.0,6.0,65,0.00,,,0.00,197.0,meteohub,2013-12-02 20:41:00,
2013-12-02 15:46:00,65.7,54.0,29.81,WNW,287,1.0,6.0,66,0.00,,,0.00,67.0,meteohub,2013-12-02 20:46:00,
2013-12-02 15:51:00,65.3,53.2,29.81,WNW,287,0.0,5.0,65,0.00,,,0.00,32.0,meteohub,2013-12-02 20:51:00,
2013-12-02 15:56:00,64.9,53.2,29.81,WNW,287,0.0,5.0,66,0.00,,,0.00,33.0,meteohub,2013-12-02 20:56:00,
2013-12-02 16:01:00,64.6,53.8,29.81,WNW,287,0.0,5.0,68,0.00,,,0.00,49.0,meteohub,2013-12-02 21:01:00,
2013-12-02 16:06:00,64.2,54.3,29.82,WNW,287,0.0,2.0,70,0.00,,,0.00,67.0,meteohub,2013-12-02 21:06:00,
2013-12-02 16:11:00,64.0,54.5,29.82,WNW,287,0.0,0.0,71,0.00,,,0.00,67.0,meteohub,2013-12-02 21:11:00,
2013-12-02 16:16:00,63.9,54.3,29.82,WNW,287,0.0,0.0,71,0.00,,,0.00,86.0,meteohub,2013-12-02 21:16:00,
2013-12-02 16:21:00,63.9,54.0,29.82,WNW,287,0.0,0.0,70,0.00,,,0.00,62.0,meteohub,2013-12-02 21:21:00,
2013-12-02 16:26:00,63.9,54.7,29.82,WNW,287,0.0,0.0,72,0.00,,,0.00,54.0,meteohub,2013-12-02 21:26:00,
2013-12-02 16:31:00,63.9,55.0,29.82,WNW,286,0.0,0.0,73,0.00,,,0.00,44.0,meteohub,2013-12-02 21:31:00,
2013-12-02 16:36:00,63.1,54.7,29.82,SE,124,0.0,3.0,74,0.00,,,0.00,56.0,meteohub,2013-12-02 21:36:00,
2013-12-02 16:41:00,62.5,55.0,29.81,SE,124,1.0,-999.0,76,-99.99,,,0.00,51,weatherlink.com 1.10,2013-12-02 21:41:00,
2013-12-02 16:46:00,62.1,54.7,29.83,SE,124,1.0,3.0,77,0.00,,,0.00,33.0,meteohub,2013-12-02 21:46:00,
2013-12-02 16:51:00,61.3,54.5,29.83,ESE,123,2.0,2.0,78,0.00,,,0.00,26.0,meteohub,2013-12-02 21:51:00,
2013-12-02 16:56:00,61.0,54.5,29.83,SE,124,0.0,2.0,79,0.00,,,0.00,19.0,meteohub,2013-12-02 21:56:00,
2013-12-02 17:01:00,60.3,54.1,29.83,ESE,123,0.0,2.0,80,0.00,,,0.00,12.0,meteohub,2013-12-02 22:01:00,
2013-12-02 17:06:00,59.7,54.0,29.83,SE,124,0.0,2.0,81,0.00,,,0.00,11.0,meteohub,2013-12-02 22:06:00,
2013-12-02 17:11:00,59.0,53.0,29.81,SE,124,0.0,-999.0,81,-99.99,,,0.00,9,weatherlink.com 1.10,2013-12-02 22:11:00,
2013-12-02 17:16:00,58.6,53.2,29.83,ESE,123,0.0,1.0,82,0.00,,,0.00,7.0,meteohub,2013-12-02 22:16:00,
2013-12-02 17:21:00,58.3,53.1,29.83,SE,124,0.0,1.0,83,0.00,,,0.00,7.0,meteohub,2013-12-02 22:21:00,
2013-12-02 17:26:00,57.7,52.9,29.83,SE,124,0.0,1.0,84,0.00,,,0.00,7.0,meteohub,2013-12-02 22:26:00,
2013-12-02 17:31:00,57.6,52.7,29.83,SE,124,0.0,1.0,84,0.00,,,0.00,5.0,meteohub,2013-12-02 22:31:00,
2013-12-02 17:36:00,57.2,52.7,29.84,SE,124,0.0,0.0,85,0.00,,,0.00,0.0,meteohub,2013-12-02 22:36:00,
2013-12-02 17:42:00,56.8,52.3,29.84,SE,124,0.0,0.0,85,0.00,,,0.00,0.0,meteohub,2013-12-02 22:42:00,
2013-12-02 17:47:00,56.5,52.3,29.84,SE,124,0.0,0.0,86,0.00,,,0.00,0.0,meteohub,2013-12-02 22:47:00,
2013-12-02 17:52:00,56.1,52.0,29.84,SE,124,0.0,0.0,86,0.00,,,0.00,0.0,meteohub,2013-12-02 22:52:00,
2013-12-02 17:57:00,55.8,51.6,29.84,ESE,123,0.0,0.0,86,0.00,,,0.00,0.0,meteohub,2013-12-02 22:57:00,
2013-12-02 18:02:00,55.6,51.8,29.84,SE,124,0.0,0.0,87,0.00,,,0.00,0.0,meteohub,2013-12-02 23:02:00,
2013-12-02 18:07:00,55.2,51.8,29.85,SE,124,0.0,0.0,88,0.00,,,0.00,0.0,meteohub,2013-12-02 23:07:00,
2013-12-02 18:12:00,54.9,51.4,29.85,ESE,123,0.0,0.0,88,0.00,,,0.00,0.0,meteohub,2013-12-02 23:12:00,
2013-12-02 18:17:00,54.5,51.3,29.85,ESE,123,0.0,0.0,89,0.00,,,0.00,0.0,meteohub,2013-12-02 23:17:00,
2013-12-02 18:22:00,54.1,50.9,29.85,SE,124,0.0,0.0,89,0.00,,,0.00,0.0,meteohub,2013-12-02 23:22:00,
2013-12-02 18:27:00,54.0,50.7,29.85,SE,124,0.0,0.0,89,0.00,,,0.00,0.0,meteohub,2013-12-02 23:27:00,
2013-12-02 18:32:00,53.4,50.5,29.85,SE,124,0.0,0.0,90,0.00,,,0.00,0.0,meteohub,2013-12-02 23:32:00,
2013-12-02 18:37:00,53.2,50.4,29.84,ESE,123,0.0,0.0,90,0.00,,,0.00,0.0,meteohub,2013-12-02 23:37:00,
2013-12-02 18:41:00,52.9,50.4,29.84,SE,124,0.0,0.0,91,0.00,,,0.00,0.0,meteohub,2013-12-02 23:41:00,
2013-12-02 18:46:00,52.5,50.0,29.84,SE,124,0.0,0.0,91,0.00,,,0.00,0.0,meteohub,2013-12-02 23:46:00,
2013-12-02 18:51:00,52.3,49.8,29.84,ESE,123,0.0,0.0,91,0.00,,,0.00,0.0,meteohub,2013-12-02 23:51:00,
2013-12-02 18:56:00,52.2,49.8,29.84,SE,124,0.0,0.0,92,0.00,,,0.00,0.0,meteohub,2013-12-02 23:56:00,
2013-12-02 19:01:00,52.0,49.6,29.85,ESE,123,0.0,0.0,92,0.00,,,0.00,0.0,meteohub,2013-12-03 00:01:00,
2013-12-02 19:06:00,51.8,49.6,29.85,SE,124,0.0,0.0,92,0.00,,,0.00,0.0,meteohub,2013-12-03 00:06:00,
2013-12-02 19:11:00,51.6,49.6,29.85,SE,124,0.0,0.0,93,0.00,,,0.00,0.0,meteohub,2013-12-03 00:11:00,
2013-12-02 19:16:00,51.6,49.5,29.85,ESE,123,0.0,0.0,92,0.00,,,0.00,0.0,meteohub,2013-12-03 00:16:00,
2013-12-02 19:21:00,51.4,49.5,29.85,ESE,123,0.0,0.0,93,0.00,,,0.00,0.0,meteohub,2013-12-03 00:21:00,
2013-12-02 19:26:00,51.4,49.5,29.85,SE,124,0.0,0.0,93,0.00,,,0.00,0.0,meteohub,2013-12-03 00:26:00,
2013-12-02 19:31:00,51.4,49.5,29.85,ESE,123,0.0,0.0,93,0.00,,,0.00,0.0,meteohub,2013-12-03 00:31:00,
2013-12-02 19:37:00,51.3,49.3,29.85,SE,124,0.0,0.0,93,0.00,,,0.00,0.0,meteohub,2013-12-03 00:37:00,
2013-12-02 19:42:00,51.3,49.3,29.85,SE,124,0.0,0.0,93,0.00,,,0.00,0.0,meteohub,2013-12-03 00:42:00,
2013-12-02 19:46:00,51.1,49.5,29.86,SE,124,0.0,0.0,94,0.00,,,0.00,0.0,meteohub,2013-12-03 00:46:00,
2013-12-02 19:51:00,50.9,49.3,29.86,ESE,123,0.0,0.0,94,0.00,,,0.00,0.0,meteohub,2013-12-03 00:51:00,
2013-12-02 19:56:00,50.7,49.1,29.86,SE,124,0.0,0.0,94,0.00,,,0.00,0.0,meteohub,2013-12-03 00:56:00,
2013-12-02 20:02:00,50.5,48.9,29.86,SE,124,0.0,0.0,94,0.00,,,0.00,0.0,meteohub,2013-12-03 01:02:00,
2013-12-02 20:07:00,50.5,48.9,29.86,SE,124,0.0,0.0,94,0.00,,,0.00,0.0,meteohub,2013-12-03 01:07:00,
2013-12-02 20:11:00,50.4,48.7,29.86,SE,124,0.0,0.0,94,0.00,,,0.00,0.0,meteohub,2013-12-03 01:11:00,
2013-12-02 20:17:00,50.4,48.7,29.86,SE,124,0.0,0.0,94,0.00,,,0.00,0.0,meteohub,2013-12-03 01:17:00,
2013-12-02 20:22:00,50.4,48.7,29.86,SE,124,0.0,0.0,94,0.00,,,0.00,0.0,meteohub,2013-12-03 01:22:00,
2013-12-02 20:27:00,50.2,48.6,29.86,ESE,123,0.0,0.0,94,0.00,,,0.00,0.0,meteohub,2013-12-03 01:27:00,
2013-12-02 20:32:00,50.0,48.4,29.86,SE,124,0.0,0.0,94,0.00,,,0.00,0.0,meteohub,2013-12-03 01:32:00,
2013-12-02 20:37:00,49.8,48.2,29.86,ESE,123,0.0,0.0,94,0.00,,,0.00,0.0,meteohub,2013-12-03 01:37:00,
2013-12-02 20:42:00,49.8,48.4,29.86,SE,124,0.0,0.0,95,0.00,,,0.00,0.0,meteohub,2013-12-03 01:42:00,
2013-12-02 20:47:00,49.8,48.2,29.86,ESE,123,0.0,0.0,94,0.00,,,0.00,0.0,meteohub,2013-12-03 01:47:00,
2013-12-02 20:52:00,49.6,48.2,29.86,SE,124,0.0,0.0,95,0.00,,,0.00,0.0,meteohub,2013-12-03 01:52:00,
2013-12-02 20:57:00,49.6,48.2,29.86,SE,124,0.0,0.0,95,0.00,,,0.00,0.0,meteohub,2013-12-03 01:57:00,
2013-12-02 21:02:00,49.5,48.0,29.87,ESE,123,0.0,0.0,95,0.00,,,0.00,0.0,meteohub,2013-12-03 02:02:00,
2013-12-02 21:07:00,49.3,47.8,29.87,SE,124,0.0,0.0,95,0.00,,,0.00,0.0,meteohub,2013-12-03 02:07:00,
2013-12-02 21:12:00,49.3,47.8,29.87,SE,124,0.0,0.0,95,0.00,,,0.00,0.0,meteohub,2013-12-03 02:12:00,
2013-12-02 21:17:00,49.3,47.8,29.87,SE,124,0.0,0.0,95,0.00,,,0.00,0.0,meteohub,2013-12-03 02:17:00,
2013-12-02 21:22:00,48.9,47.5,29.87,ESE,123,0.0,0.0,95,0.00,,,0.00,0.0,meteohub,2013-12-03 02:22:00,
2013-12-02 21:27:00,48.9,47.5,29.87,SE,124,0.0,0.0,95,0.00,,,0.00,0.0,meteohub,2013-12-03 02:27:00,
2013-12-02 21:32:00,48.7,47.3,29.87,SE,124,0.0,0.0,95,0.00,,,0.00,0.0,meteohub,2013-12-03 02:32:00,
2013-12-02 21:37:00,48.6,47.1,29.87,ESE,123,0.0,0.0,95,0.00,,,0.00,0.0,meteohub,2013-12-03 02:37:00,
2013-12-02 21:42:00,48.6,47.1,29.88,SE,124,0.0,0.0,95,0.00,,,0.00,0.0,meteohub,2013-12-03 02:42:00,
2013-12-02 21:47:00,48.4,46.9,29.88,SE,124,0.0,0.0,95,0.00,,,0.00,0.0,meteohub,2013-12-03 02:47:00,
2013-12-02 21:52:00,48.4,46.9,29.88,SE,124,0.0,0.0,95,0.00,,,0.00,0.0,meteohub,2013-12-03 02:52:00,
2013-12-02 21:57:00,48.4,46.9,29.88,SE,124,0.0,0.0,95,0.00,,,0.00,0.0,meteohub,2013-12-03 02:57:00,
2013-12-02 22:02:00,48.4,46.9,29.88,SE,124,0.0,0.0,95,0.00,,,0.00,0.0,meteohub,2013-12-03 03:02:00,
2013-12-02 22:07:00,48.4,46.9,29.88,SE,124,0.0,0.0,95,0.00,,,0.00,0.0,meteohub,2013-12-03 03:07:00,
2013-12-02 22:12:00,48.2,46.8,29.88,ESE,123,0.0,0.0,95,0.00,,,0.00,0.0,meteohub,2013-12-03 03:12:00,
2013-12-02 22:17:00,48.2,46.8,29.88,ESE,123,0.0,0.0,95,0.00,,,0.00,0.0,meteohub,2013-12-03 03:17:00,
2013-12-02 22:22:00,48.0,46.6,29.88,SE,124,0.0,0.0,95,0.00,,,0.00,0.0,meteohub,2013-12-03 03:22:00,
2013-12-02 22:27:00,48.0,46.6,29.88,SE,124,0.0,0.0,95,0.00,,,0.00,0.0,meteohub,2013-12-03 03:27:00,
2013-12-02 22:32:00,48.0,46.6,29.88,SE,124,0.0,0.0,95,0.00,,,0.00,0.0,meteohub,2013-12-03 03:32:00,
2013-12-02 22:37:00,48.0,46.9,29.88,ESE,123,0.0,0.0,96,0.00,,,0.00,0.0,meteohub,2013-12-03 03:37:00,
2013-12-02 22:42:00,47.8,46.8,29.88,SE,124,0.0,0.0,96,0.00,,,0.00,0.0,meteohub,2013-12-03 03:42:00,
2013-12-02 22:47:00,47.7,46.2,29.88,ESE,123,0.0,0.0,95,0.00,,,0.00,0.0,meteohub,2013-12-03 03:47:00,
2013-12-02 22:52:00,47.7,46.6,29.88,ESE,123,0.0,0.0,96,0.00,,,0.00,0.0,meteohub,2013-12-03 03:52:00,
2013-12-02 22:57:00,47.7,46.6,29.88,SE,124,0.0,0.0,96,0.00,,,0.00,0.0,meteohub,2013-12-03 03:57:00,
2013-12-02 23:02:00,47.5,46.4,29.88,SE,124,0.0,0.0,96,0.00,,,0.00,0.0,meteohub,2013-12-03 04:02:00,
2013-12-02 23:07:00,47.5,46.4,29.88,SE,124,0.0,0.0,96,0.00,,,0.00,0.0,meteohub,2013-12-03 04:07:00,
2013-12-02 23:12:00,47.5,46.4,29.88,SE,124,0.0,0.0,96,0.00,,,0.00,0.0,meteohub,2013-12-03 04:12:00,
2013-12-02 23:17:00,47.5,46.4,29.88,SE,124,0.0,0.0,96,0.00,,,0.00,0.0,meteohub,2013-12-03 04:17:00,
2013-12-02 23:22:00,47.5,46.4,29.88,ESE,123,0.0,0.0,96,0.00,,,0.00,0.0,meteohub,2013-12-03 04:22:00,
2013-12-02 23:27:00,47.1,46.0,29.88,SE,124,0.0,0.0,96,0.00,,,0.00,0.0,meteohub,2013-12-03 04:27:00,
2013-12-02 23:32:00,46.9,45.9,29.88,ESE,123,0.0,0.0,96,0.00,,,0.00,0.0,meteohub,2013-12-03 04:32:00,
2013-12-02 23:37:00,46.9,45.9,29.88,ESE,123,0.0,0.0,96,0.00,,,0.00,0.0,meteohub,2013-12-03 04:37:00,
2013-12-02 23:42:00,46.9,45.9,29.88,SE,124,0.0,0.0,96,0.00,,,0.00,0.0,meteohub,2013-12-03 04:42:00,
2013-12-02 23:47:00,46.9,45.9,29.88,SE,124,0.0,0.0,96,0.00,,,0.00,0.0,meteohub,2013-12-03 04:47:00,
2013-12-02 23:52:00,46.8,45.7,29.88,ESE,123,0.0,0.0,96,0.00,,,0.00,0.0,meteohub,2013-12-03 04:52:00,
2013-12-02 23:57:00,46.8,45.7,29.88,SE,124,0.0,0.0,96,0.00,,,0.00,0.0,meteohub,2013-12-03 04:57:00,